Time;durP1;ratioP1;P1;durP2;ratioP2;P2;SDS_P1;SDS_P2;PMS_P1;PMS_P2;Temp;Humidity;BMP_temperature;BMP_pressure;BME280_temperature;BME280_humidity;BME280_pressure;Samples;Min_cycle;Max_cycle;Signal;HPM_P1;HPM_P2
2022/01/18 00:03:14;;;;;;;35.27;11.50;;;;;4.20;97802.00;;;;8352963;28;20281;-75
2022/01/18 00:07:17;;;;;;;32.90;10.90;;;;;4.20;97803.00;;;;8349845;28;20239;-75
2022/01/18 00:11:25;;;;;;;38.70;11.17;;;;;4.20;97808.00;;;;8347324;28;20648;-74
2022/01/18 00:15:38;;;;;;;29.77;9.97;;;;;4.20;97808.00;;;;8351954;28;20235;-76
2022/01/18 00:19:47;;;;;;;30.37;9.93;;;;;4.30;97813.00;;;;8348390;28;20259;-75
2022/01/18 00:23:54;;;;;;;35.07;10.50;;;;;4.30;97824.00;;;;8349982;28;20251;-75
2022/01/18 00:27:58;;;;;;;31.57;10.10;;;;;4.30;97826.00;;;;8352311;28;20348;-75
2022/01/18 00:32:09;;;;;;;27.63;9.10;;;;;4.40;97833.00;;;;8354095;28;20745;-74
2022/01/18 00:36:25;;;;;;;29.40;10.03;;;;;4.50;97840.00;;;;8352411;28;20253;-75
2022/01/18 00:40:29;;;;;;;29.03;9.67;;;;;4.50;97833.00;;;;8345624;28;20346;-75
2022/01/18 00:44:32;;;;;;;33.93;10.13;;;;;4.50;97833.00;;;;8352512;28;20307;-75
2022/01/18 00:48:36;;;;;;;25.10;9.70;;;;;4.60;97835.00;;;;8342389;28;20303;-75
2022/01/18 00:52:43;;;;;;;25.17;8.93;;;;;4.60;97845.00;;;;8329065;28;20267;-74
2022/01/18 00:56:47;;;;;;;28.80;9.63;;;;;4.60;97862.00;;;;8359229;28;20652;-74
2022/01/18 01:00:51;;;;;;;32.93;9.60;;;;;4.60;97868.00;;;;8345969;28;20299;-74
2022/01/18 01:04:54;;;;;;;33.87;10.10;;;;;4.50;97873.00;;;;8354243;28;20949;-74
2022/01/18 01:08:59;;;;;;;31.20;10.07;;;;;4.60;97864.00;;;;8350719;28;20331;-75
2022/01/18 01:13:02;;;;;;;27.17;9.43;;;;;4.60;97867.00;;;;8347915;28;20324;-74
2022/01/18 01:17:19;;;;;;;30.80;11.10;;;;;4.60;97877.00;;;;8349342;28;20228;-76
2022/01/18 01:34:42;;;;;;;45.53;12.00;;;;;4.40;97860.00;;;;8346252;28;20226;-75
2022/01/18 01:43:18;;;;;;;47.60;12.77;;;;;4.30;97871.00;;;;8354740;28;20306;-74
2022/01/18 01:47:32;;;;;;;36.13;11.13;;;;;4.30;97862.00;;;;8356212;28;20236;-75
2022/01/18 01:51:35;;;;;;;51.47;11.77;;;;;4.20;97866.00;;;;8349307;28;20259;-73
2022/01/18 01:55:39;;;;;;;37.17;10.60;;;;;4.20;97862.00;;;;8351145;28;20252;-75
2022/01/18 01:59:44;;;;;;;36.03;10.53;;;;;4.20;97860.00;;;;8334622;28;20228;-75
2022/01/18 02:03:48;;;;;;;39.93;10.27;;;;;4.20;97866.00;;;;8338914;28;20243;-73
2022/01/18 02:07:52;;;;;;;39.33;10.63;;;;;4.20;97856.00;;;;8339762;28;20251;-75
2022/01/18 02:11:57;;;;;;;36.70;9.83;;;;;4.20;97867.00;;;;8354916;28;20677;-75
2022/01/18 02:21:45;;;;;;;34.00;9.07;;;;;4.20;97862.00;;;;8355299;28;20248;-74
2022/01/18 02:25:02;;;;;;;24.90;8.23;;;;;4.20;97864.00;;;;8348902;28;20656;-73
2022/01/18 02:29:09;;;;;;;39.70;9.27;;;;;4.20;97866.00;;;;8351109;28;20266;-75
2022/01/18 02:33:12;;;;;;;30.07;8.80;;;;;4.20;97860.00;;;;8368938;28;20319;-74
2022/01/18 02:37:16;;;;;;;32.80;8.63;;;;;4.20;97856.00;;;;8357024;28;22148;-74
2022/01/18 02:41:24;;;;;;;26.23;7.60;;;;;4.20;97866.00;;;;8348930;28;20649;-75
2022/01/18 02:45:28;;;;;;;27.77;7.90;;;;;4.20;97871.00;;;;8349427;28;20630;-72
2022/01/18 02:49:32;;;;;;;29.13;7.03;;;;;4.20;97873.00;;;;8357736;28;20263;-73
2022/01/18 02:53:52;;;;;;;29.43;7.07;;;;;4.00;97873.00;;;;8362999;28;20270;-75
2022/01/18 02:58:02;;;;;;;25.73;6.53;;;;;4.00;97866.00;;;;8348161;28;20258;-73
2022/01/18 03:06:42;;;;;;;22.67;6.07;;;;;3.80;97870.00;;;;8402692;28;20340;-74
2022/01/18 03:10:46;;;;;;;23.33;5.50;;;;;3.80;97879.00;;;;8406241;28;20951;-74
2022/01/18 03:14:49;;;;;;;19.70;5.60;;;;;3.80;97880.00;;;;8404957;28;20319;-75
2022/01/18 03:18:52;;;;;;;26.30;5.33;;;;;3.80;97876.00;;;;8401356;28;20754;-76
2022/01/18 03:22:56;;;;;;;27.33;6.00;;;;;3.70;97871.00;;;;8405523;28;20230;-76
2022/01/18 03:31:21;;;;;;;26.50;6.07;;;;;3.60;97888.00;;;;8404595;28;20263;-75
2022/01/18 03:35:25;;;;;;;20.63;5.63;;;;;3.60;97891.00;;;;8406044;28;20222;-74
2022/01/18 03:39:28;;;;;;;25.87;6.80;;;;;3.60;97900.00;;;;8408003;28;20303;-75
2022/01/18 03:43:35;;;;;;;33.77;6.57;;;;;3.60;97894.00;;;;8410562;28;20310;-74
2022/01/18 03:47:38;;;;;;;25.47;6.53;;;;;3.60;97901.00;;;;8403051;28;20595;-74
2022/01/18 03:51:41;;;;;;;24.80;5.60;;;;;3.50;97905.00;;;;8403285;28;20233;-73
2022/01/18 03:55:44;;;;;;;24.70;6.27;;;;;3.40;97906.00;;;;8393321;28;20229;-73
2022/01/18 03:59:50;;;;;;;18.20;5.87;;;;;3.30;97909.00;;;;8403780;28;20662;-73
2022/01/18 04:03:53;;;;;;;17.37;5.63;;;;;3.20;97910.00;;;;8390719;28;20362;-73
2022/01/18 04:07:56;;;;;;;25.17;6.13;;;;;3.10;97915.00;;;;8389717;28;20233;-72
2022/01/18 04:12:00;;;;;;;23.30;6.03;;;;;3.10;97910.00;;;;8383446;28;20229;-72
2022/01/18 04:16:08;;;;;;;17.73;5.30;;;;;3.10;97900.00;;;;8393167;28;20310;-71
2022/01/18 04:28:53;;;;;;;26.07;4.50;;;;;3.20;97898.00;;;;8384086;28;20743;-71
2022/01/18 04:32:57;;;;;;;15.13;4.17;;;;;3.30;97899.00;;;;8389403;28;20903;-72
2022/01/18 04:37:01;;;;;;;19.70;4.60;;;;;3.30;97913.00;;;;8388072;28;20592;-71
2022/01/18 04:41:07;;;;;;;19.23;4.77;;;;;3.30;97914.00;;;;8394698;28;20238;-71
2022/01/18 04:49:32;;;;;;;22.97;5.73;;;;;3.40;97906.00;;;;8396804;28;20302;-72
2022/01/18 04:53:37;;;;;;;17.60;5.60;;;;;3.40;97908.00;;;;8389133;28;20251;-71
2022/01/18 04:57:52;;;;;;;18.77;5.53;;;;;3.40;97931.00;;;;8387432;28;20262;-79
2022/01/18 05:01:56;;;;;;;24.20;5.93;;;;;3.40;97929.00;;;;8391942;28;20230;-71
2022/01/18 05:06:08;;;;;;;18.33;6.07;;;;;3.40;97931.00;;;;8392290;28;20227;-73
2022/01/18 05:10:11;;;;;;;23.00;6.03;;;;;3.30;97927.00;;;;8388897;28;20316;-73
2022/01/18 05:14:23;;;;;;;23.10;5.87;;;;;3.40;97937.00;;;;8382979;28;20232;-72
2022/01/18 05:23:00;;;;;;;26.33;6.23;;;;;3.50;97943.00;;;;8393083;28;20261;-72
2022/01/18 05:27:05;;;;;;;27.17;6.63;;;;;3.50;97946.00;;;;8396418;28;20226;-72
2022/01/18 05:31:08;;;;;;;36.57;7.37;;;;;3.50;97945.00;;;;8413634;28;20275;-72
2022/01/18 05:35:12;;;;;;;21.47;5.90;;;;;3.50;97951.00;;;;8401149;28;20222;-72
2022/01/18 05:39:16;;;;;;;26.17;6.17;;;;;3.50;97964.00;;;;8406386;28;20707;-72
2022/01/18 05:43:19;;;;;;;25.60;6.10;;;;;3.60;97968.00;;;;8406858;28;20234;-73
2022/01/18 05:47:24;;;;;;;24.30;6.83;;;;;3.60;97973.00;;;;8412645;28;20715;-72
2022/01/18 05:51:30;;;;;;;17.07;4.63;;;;;3.60;97987.00;;;;8408522;28;20287;-73
2022/01/18 05:55:35;;;;;;;23.27;5.93;;;;;3.60;98000.00;;;;8403249;28;20325;-71
2022/01/18 05:59:45;;;;;;;18.40;5.73;;;;;3.60;98008.00;;;;8414319;28;20280;-71
2022/01/18 06:04:06;;;;;;;24.30;5.30;;;;;3.50;98015.00;;;;8395975;28;20218;-72
2022/01/18 06:08:11;;;;;;;21.27;4.43;;;;;3.30;98015.00;;;;8414684;28;20225;-73
2022/01/18 06:12:16;;;;;;;17.43;3.43;;;;;3.20;98008.00;;;;8416321;28;20297;-72
2022/01/18 06:16:19;;;;;;;23.80;4.10;;;;;3.20;98006.00;;;;8412286;28;21964;-72
2022/01/18 06:20:22;;;;;;;21.00;4.50;;;;;3.20;98028.00;;;;8411719;28;20218;-72
2022/01/18 06:24:26;;;;;;;23.43;4.07;;;;;3.20;98022.00;;;;8412798;28;20323;-72
2022/01/18 06:28:43;;;;;;;16.53;3.80;;;;;3.20;98027.00;;;;8408067;28;20250;-72
2022/01/18 06:32:53;;;;;;;15.07;3.63;;;;;3.20;98018.00;;;;8416149;28;20217;-72
2022/01/18 06:36:56;;;;;;;20.73;4.50;;;;;3.20;98031.00;;;;8402764;28;20324;-71
2022/01/18 06:41:00;;;;;;;16.93;3.50;;;;;3.20;98022.00;;;;8413569;28;20302;-72
2022/01/18 06:45:06;;;;;;;18.93;4.33;;;;;3.10;98025.00;;;;8406243;28;20705;-71
2022/01/18 06:49:09;;;;;;;21.03;4.23;;;;;3.10;98037.00;;;;8422748;28;20264;-72
2022/01/18 06:53:12;;;;;;;24.97;5.33;;;;;3.10;98034.00;;;;8407446;28;20345;-72
2022/01/18 06:57:16;;;;;;;28.97;5.87;;;;;3.10;98047.00;;;;8413508;28;20741;-72
2022/01/18 07:01:21;;;;;;;31.47;6.50;;;;;3.20;98048.00;;;;8407503;28;20313;-73
2022/01/18 07:05:25;;;;;;;27.30;6.23;;;;;3.30;98042.00;;;;8421947;28;20709;-73
2022/01/18 07:09:28;;;;;;;23.67;6.07;;;;;3.40;98047.00;;;;8403063;28;20228;-72
2022/01/18 07:13:31;;;;;;;26.97;6.23;;;;;3.40;98056.00;;;;8412308;28;20260;-71
2022/01/18 07:17:37;;;;;;;24.90;6.53;;;;;3.40;98065.00;;;;8403549;28;20348;-72
2022/01/18 07:21:40;;;;;;;50.07;11.30;;;;;3.50;98067.00;;;;8415041;28;20888;-72
2022/01/18 07:25:46;;;;;;;28.07;7.97;;;;;3.60;98065.00;;;;8406083;28;20265;-71
2022/01/18 07:29:49;;;;;;;25.60;7.37;;;;;3.60;98060.00;;;;8408317;28;20237;-72
2022/01/18 07:33:54;;;;;;;46.33;7.43;;;;;3.60;98070.00;;;;8406351;28;20276;-72
2022/01/18 07:37:59;;;;;;;31.90;7.00;;;;;3.70;98081.00;;;;8412152;28;20238;-71
2022/01/18 07:42:03;;;;;;;26.13;6.97;;;;;3.80;98092.00;;;;8405695;28;20257;-71
2022/01/18 07:46:07;;;;;;;26.90;7.60;;;;;3.80;98084.00;;;;8405637;28;20333;-71
2022/01/18 07:50:12;;;;;;;26.73;7.10;;;;;3.90;98096.00;;;;8406985;28;20630;-71
2022/01/18 07:54:15;;;;;;;33.47;7.00;;;;;3.90;98110.00;;;;8399234;28;20246;-72
2022/01/18 07:58:19;;;;;;;27.87;7.23;;;;;4.00;98115.00;;;;8398604;28;20264;-71
2022/01/18 08:02:22;;;;;;;27.93;6.73;;;;;4.10;98115.00;;;;8406039;28;20262;-71
2022/01/18 08:06:28;;;;;;;21.97;7.03;;;;;4.10;98118.00;;;;8408832;28;20225;-71
2022/01/18 08:10:31;;;;;;;25.23;6.60;;;;;4.10;98109.00;;;;8419230;28;20589;-72
2022/01/18 08:14:35;;;;;;;18.43;6.40;;;;;4.20;98114.00;;;;8402862;28;20226;-72
2022/01/18 08:18:38;;;;;;;34.97;7.07;;;;;4.20;98116.00;;;;8412185;28;20314;-72
2022/01/18 08:22:44;;;;;;;26.13;6.90;;;;;4.30;98123.00;;;;8402857;28;20309;-72
2022/01/18 08:26:47;;;;;;;27.13;6.20;;;;;4.40;98124.00;;;;8403143;28;20643;-72
2022/01/18 08:30:50;;;;;;;27.47;7.40;;;;;4.50;98137.00;;;;8401970;28;20762;-72
2022/01/18 08:34:54;;;;;;;22.70;7.67;;;;;4.50;98137.00;;;;8418601;28;20240;-72
2022/01/18 08:39:00;;;;;;;21.20;7.40;;;;;4.70;98133.00;;;;8393571;28;20653;-71
2022/01/18 08:43:03;;;;;;;22.67;6.90;;;;;4.70;98125.00;;;;8407368;28;20276;-72
2022/01/18 08:47:07;;;;;;;21.87;7.40;;;;;4.80;98126.00;;;;8389986;28;20231;-71
2022/01/18 08:51:10;;;;;;;22.07;7.67;;;;;4.90;98129.00;;;;8405059;28;20303;-71
2022/01/18 08:55:15;;;;;;;24.30;7.70;;;;;5.00;98128.00;;;;8406015;28;20220;-72
2022/01/18 08:59:19;;;;;;;18.17;7.07;;;;;5.10;98135.00;;;;8415859;28;20249;-73
2022/01/18 09:03:23;;;;;;;25.17;7.93;;;;;5.20;98135.00;;;;8414186;28;20334;-72
2022/01/18 09:07:26;;;;;;;28.10;6.97;;;;;5.30;98147.00;;;;8410298;28;20699;-72
2022/01/18 09:11:36;;;;;;;20.63;6.00;;;;;5.40;98147.00;;;;8407119;28;20268;-72
2022/01/18 09:15:42;;;;;;;22.10;6.30;;;;;5.50;98148.00;;;;8400333;28;20734;-73
2022/01/18 09:19:45;;;;;;;16.80;6.13;;;;;5.70;98160.00;;;;8413950;28;20227;-72
2022/01/18 09:23:48;;;;;;;21.27;5.77;;;;;5.80;98156.00;;;;8402673;28;20246;-72
2022/01/18 09:27:54;;;;;;;21.03;6.97;;;;;5.80;98152.00;;;;8408653;28;20302;-72
2022/01/18 09:31:57;;;;;;;19.87;7.00;;;;;5.80;98158.00;;;;8410386;28;20238;-72
2022/01/18 09:36:00;;;;;;;20.33;7.17;;;;;5.70;98156.00;;;;8398249;28;20227;-72
2022/01/18 09:40:05;;;;;;;30.27;7.10;;;;;5.50;98150.00;;;;8392827;28;20246;-72
2022/01/18 09:44:10;;;;;;;26.87;7.37;;;;;5.50;98158.00;;;;8401072;28;20255;-72
2022/01/18 09:48:15;;;;;;;32.57;7.90;;;;;5.50;98164.00;;;;8403791;28;20330;-71
2022/01/18 09:52:18;;;;;;;36.70;8.73;;;;;5.70;98172.00;;;;8396711;28;20337;-71
2022/01/18 09:56:22;;;;;;;31.00;8.20;;;;;5.90;98164.00;;;;8412276;28;20309;-72
2022/01/18 10:00:30;;;;;;;32.50;8.30;;;;;6.20;98162.00;;;;8393169;28;20265;-72
2022/01/18 10:04:39;;;;;;;27.77;7.40;;;;;6.30;98165.00;;;;8397361;28;25562;-72
2022/01/18 10:08:47;;;;;;;25.57;8.00;;;;;6.40;98159.00;;;;8415753;28;20262;-72
2022/01/18 10:12:56;;;;;;;25.27;7.60;;;;;6.50;98155.00;;;;8405290;28;20306;-72
2022/01/18 10:17:04;;;;;;;24.97;7.87;;;;;6.50;98145.00;;;;8397643;28;20219;-72
2022/01/18 10:21:08;;;;;;;30.53;8.80;;;;;6.60;98149.00;;;;8394494;28;20251;-72
2022/01/18 10:25:16;;;;;;;27.30;7.60;;;;;6.60;98151.00;;;;8408651;28;20333;-72
2022/01/18 10:29:21;;;;;;;31.87;7.53;;;;;6.50;98147.00;;;;8401492;28;20251;-72
2022/01/18 10:33:29;;;;;;;21.33;6.77;;;;;6.60;98140.00;;;;8404131;28;20267;-72
2022/01/18 10:37:34;;;;;;;28.07;7.87;;;;;6.70;98137.00;;;;8401394;28;20618;-72
2022/01/18 10:41:37;;;;;;;19.03;6.50;;;;;6.70;98125.00;;;;8408914;28;20231;-72
2022/01/18 10:45:41;;;;;;;19.17;5.93;;;;;6.90;98123.00;;;;8420401;28;20242;-72
2022/01/18 10:49:47;;;;;;;21.53;6.43;;;;;6.90;98122.00;;;;8404975;28;20923;-73
2022/01/18 10:53:57;;;;;;;21.97;6.30;;;;;6.90;98124.00;;;;8406179;28;20246;-74
2022/01/18 10:58:09;;;;;;;21.47;6.47;;;;;6.80;98129.00;;;;8408869;28;20285;-74
2022/01/18 11:02:17;;;;;;;21.23;5.90;;;;;6.90;98120.00;;;;8429298;28;20266;-75
2022/01/18 11:06:22;;;;;;;21.87;6.57;;;;;6.80;98131.00;;;;8420657;28;20247;-75
2022/01/18 11:10:31;;;;;;;20.67;7.13;;;;;6.80;98117.00;;;;8410873;28;20313;-75
2022/01/18 11:15:04;;;;;;;24.47;5.97;;;;;7.00;98119.00;;;;8421949;28;20219;-75
2022/01/18 11:19:08;;;;;;;21.10;5.50;;;;;7.20;98116.00;;;;8391399;28;20314;-75
2022/01/18 11:23:14;;;;;;;17.70;5.80;;;;;7.40;98116.00;;;;8390465;28;20676;-75
2022/01/18 11:27:19;;;;;;;16.57;5.27;;;;;7.40;98116.00;;;;8401072;28;20249;-75
2022/01/18 11:31:23;;;;;;;19.03;4.87;;;;;7.40;98112.00;;;;8400421;28;20211;-75
2022/01/18 11:35:32;;;;;;;15.63;4.80;;;;;7.40;98115.00;;;;8400954;28;20231;-74
2022/01/18 11:39:36;;;;;;;14.73;4.53;;;;;7.30;98109.00;;;;8394992;28;20633;-75
2022/01/18 11:43:41;;;;;;;17.33;4.50;;;;;7.40;98113.00;;;;8392033;28;20297;-76
2022/01/18 11:47:59;;;;;;;14.07;5.13;;;;;7.40;98113.00;;;;8398422;28;20579;-76
2022/01/18 11:52:06;;;;;;;12.43;4.63;;;;;7.60;98106.00;;;;8398307;28;20227;-74
2022/01/18 11:56:14;;;;;;;15.57;4.77;;;;;7.70;98107.00;;;;8401046;28;21083;-76
2022/01/18 12:00:24;;;;;;;14.83;5.00;;;;;7.70;98101.00;;;;8400776;28;20231;-75
2022/01/18 12:05:13;;;;;;;16.40;5.40;;;;;7.60;98097.00;;;;8394352;28;20334;-75
2022/01/18 12:09:38;;;;;;;16.87;5.77;;;;;7.50;98104.00;;;;8390868;28;20372;-75
2022/01/18 12:13:47;;;;;;;18.83;6.23;;;;;7.50;98098.00;;;;8391622;28;20255;-74
2022/01/18 12:18:01;;;;;;;17.07;5.07;;;;;7.70;98102.00;;;;8391383;28;20317;-75
2022/01/18 12:22:09;;;;;;;10.70;4.50;;;;;7.50;98095.00;;;;8400489;28;20885;-74
2022/01/18 12:26:39;;;;;;;13.27;5.00;;;;;7.20;98102.00;;;;8395199;28;20330;-76
2022/01/18 12:31:05;;;;;;;14.13;5.70;;;;;7.20;98097.00;;;;8398552;28;20645;-74
2022/01/18 12:35:23;;;;;;;15.73;5.17;;;;;7.20;98096.00;;;;8393088;28;20219;-74
2022/01/18 12:39:27;;;;;;;12.23;5.17;;;;;7.40;98087.00;;;;8397436;28;20255;-75
2022/01/18 12:47:58;;;;;;;9.87;4.57;;;;;7.30;98080.00;;;;8396614;28;20234;-75
2022/01/18 12:52:01;;;;;;;8.83;3.73;;;;;7.30;98071.00;;;;8395558;28;20247;-77
2022/01/18 12:56:06;;;;;;;10.57;4.80;;;;;7.30;98073.00;;;;8395156;28;20270;-76
2022/01/18 13:00:14;;;;;;;6.47;3.40;;;;;7.10;98058.00;;;;8393775;28;20235;-73
2022/01/18 13:04:22;;;;;;;9.27;4.20;;;;;7.10;98071.00;;;;8388929;28;20247;-74
2022/01/18 13:08:29;;;;;;;8.37;3.50;;;;;7.00;98075.00;;;;8392242;28;20258;-75
2022/01/18 13:12:34;;;;;;;8.27;3.23;;;;;6.80;98073.00;;;;8381528;28;20271;-76
2022/01/18 13:25:19;;;;;;;8.17;3.37;;;;;7.20;98066.00;;;;8385694;28;20245;-75
2022/01/18 13:29:26;;;;;;;9.57;3.30;;;;;7.30;98075.00;;;;8388459;28;20297;-77
2022/01/18 13:33:29;;;;;;;8.00;3.67;;;;;7.20;98078.00;;;;8388319;28;20563;-74
2022/01/18 13:37:37;;;;;;;8.37;3.40;;;;;7.30;98075.00;;;;8396850;28;20219;-75
2022/01/18 13:41:41;;;;;;;8.53;3.80;;;;;7.40;98060.00;;;;8387527;28;20227;-75
2022/01/18 13:45:44;;;;;;;7.10;3.10;;;;;7.40;98061.00;;;;8394131;28;20247;-74
2022/01/18 13:49:49;;;;;;;4.20;2.60;;;;;7.40;98059.00;;;;8390853;28;20242;-80
2022/01/18 13:54:03;;;;;;;5.70;2.60;;;;;7.40;98069.00;;;;8392827;28;20231;-79
2022/01/18 13:58:07;;;;;;;6.93;3.20;;;;;7.50;98073.00;;;;8391976;28;20247;-81
2022/01/18 14:02:12;;;;;;;7.30;4.27;;;;;7.60;98069.00;;;;8391828;28;20310;-82
2022/01/18 14:06:17;;;;;;;6.63;3.40;;;;;7.60;98075.00;;;;8401129;28;20227;-81
2022/01/18 14:10:24;;;;;;;13.67;4.30;;;;;7.60;98073.00;;;;8399622;28;20330;-81
2022/01/18 14:14:33;;;;;;;6.20;3.60;;;;;7.70;98079.00;;;;8405766;28;20227;-79
2022/01/18 14:18:51;;;;;;;9.47;3.97;;;;;7.50;98072.00;;;;8402384;28;20226;-72
2022/01/18 14:22:56;;;;;;;7.07;3.23;;;;;7.40;98075.00;;;;8399835;28;20276;-72
2022/01/18 14:27:06;;;;;;;7.53;3.03;;;;;7.40;98072.00;;;;8398781;28;20774;-72
2022/01/18 14:31:09;;;;;;;7.13;3.33;;;;;7.40;98075.00;;;;8395819;28;20270;-78
2022/01/18 14:35:18;;;;;;;4.43;2.30;;;;;7.30;98071.00;;;;8401866;28;20247;-78
2022/01/18 14:39:22;;;;;;;11.80;4.93;;;;;7.40;98076.00;;;;8397641;28;20666;-78
2022/01/18 14:43:29;;;;;;;2.90;2.20;;;;;7.30;98073.00;;;;8399393;28;20299;-78
2022/01/18 14:47:33;;;;;;;4.43;2.30;;;;;7.30;98069.00;;;;8398520;28;20657;-79
2022/01/18 14:51:37;;;;;;;16.77;9.17;;;;;7.30;98064.00;;;;8400990;28;20242;-77
2022/01/18 14:55:41;;;;;;;53.30;24.07;;;;;7.30;98069.00;;;;8397822;28;20418;-78
2022/01/18 14:59:45;;;;;;;9.63;2.47;;;;;7.30;98064.00;;;;8419039;28;20638;-78
2022/01/18 15:03:49;;;;;;;6.77;3.10;;;;;7.30;98072.00;;;;8396636;28;20951;-77
2022/01/18 15:07:53;;;;;;;3.90;2.73;;;;;7.20;98070.00;;;;8406924;28;20233;-76
2022/01/18 15:11:56;;;;;;;7.47;2.03;;;;;7.10;98068.00;;;;8397601;28;20310;-75
2022/01/18 15:16:02;;;;;;;4.43;2.50;;;;;7.00;98057.00;;;;8404040;28;20255;-75
2022/01/18 15:20:08;;;;;;;5.90;3.47;;;;;6.80;98055.00;;;;8386268;28;20708;-77
2022/01/18 15:24:12;;;;;;;8.33;4.10;;;;;6.70;98060.00;;;;8404632;28;20224;-77
2022/01/18 15:28:15;;;;;;;7.43;4.67;;;;;6.60;98057.00;;;;8400740;28;20243;-76
2022/01/18 15:32:20;;;;;;;4.10;2.40;;;;;6.60;98054.00;;;;8400253;28;20302;-77
2022/01/18 15:36:24;;;;;;;5.10;2.30;;;;;6.60;98050.00;;;;8391840;28;20278;-75
2022/01/18 15:40:27;;;;;;;7.10;2.30;;;;;6.60;98055.00;;;;8402117;28;20254;-75
2022/01/18 15:44:31;;;;;;;4.00;2.17;;;;;6.60;98050.00;;;;8393025;28;20697;-74
2022/01/18 15:48:36;;;;;;;7.90;2.67;;;;;6.60;98061.00;;;;8391810;28;20224;-74
2022/01/18 15:52:39;;;;;;;9.60;2.40;;;;;6.60;98054.00;;;;8396255;28;20639;-75
2022/01/18 15:56:43;;;;;;;6.03;2.67;;;;;6.50;98055.00;;;;8401985;28;20625;-77
2022/01/18 16:00:48;;;;;;;9.17;3.67;;;;;6.40;98048.00;;;;8394557;28;20248;-77
2022/01/18 16:04:55;;;;;;;6.27;4.10;;;;;6.30;98053.00;;;;8394295;28;20223;-77
2022/01/18 16:08:58;;;;;;;7.27;3.90;;;;;6.30;98055.00;;;;8395999;28;20244;-74
2022/01/18 16:13:02;;;;;;;9.87;3.60;;;;;6.30;98061.00;;;;8403751;28;20347;-75
2022/01/18 16:17:05;;;;;;;6.37;3.97;;;;;6.40;98074.00;;;;8396949;28;20234;-75
2022/01/18 16:21:10;;;;;;;9.07;4.20;;;;;6.40;98080.00;;;;8410953;28;20239;-77
2022/01/18 16:25:15;;;;;;;5.43;3.80;;;;;6.40;98074.00;;;;8402328;28;20238;-77
2022/01/18 16:29:19;;;;;;;6.50;3.33;;;;;6.50;98079.00;;;;8421268;28;20789;-76
2022/01/18 16:33:23;;;;;;;8.80;3.97;;;;;6.30;98087.00;;;;8405585;28;20251;-74
2022/01/18 16:37:28;;;;;;;7.07;2.83;;;;;6.20;98082.00;;;;8405036;28;20228;-75
2022/01/18 16:41:32;;;;;;;3.67;1.40;;;;;6.10;98069.00;;;;8402942;28;20257;-74
2022/01/18 16:45:36;;;;;;;2.43;2.17;;;;;6.10;98072.00;;;;8389079;28;21048;-75
2022/01/18 16:49:39;;;;;;;4.40;2.43;;;;;6.10;98078.00;;;;8379943;28;20223;-75
2022/01/18 16:53:44;;;;;;;1.83;1.40;;;;;6.00;98074.00;;;;8382887;28;20302;-75
2022/01/18 16:58:02;;;;;;;5.33;2.77;;;;;5.90;98083.00;;;;8359893;28;20274;-73
2022/01/18 17:02:11;;;;;;;4.17;2.67;;;;;5.90;98093.00;;;;8345651;28;20281;-74
2022/01/18 17:06:18;;;;;;;5.97;3.00;;;;;5.90;98081.00;;;;8370197;28;20228;-75
2022/01/18 17:10:23;;;;;;;5.03;3.07;;;;;5.90;98082.00;;;;8387285;28;20302;-75
2022/01/18 17:14:26;;;;;;;8.53;3.90;;;;;5.90;98080.00;;;;8395878;28;20317;-76
2022/01/18 17:18:30;;;;;;;7.80;4.30;;;;;5.90;98075.00;;;;8388240;28;20245;-76
2022/01/18 17:22:34;;;;;;;6.63;4.53;;;;;5.90;98066.00;;;;8394720;28;20684;-74
2022/01/18 17:26:39;;;;;;;6.57;4.30;;;;;5.90;98061.00;;;;8393675;28;20265;-76
2022/01/18 17:30:42;;;;;;;1.40;1.30;;;;;5.80;98058.00;;;;8377224;28;20727;-75
2022/01/18 17:34:46;;;;;;;1.87;1.73;;;;;5.80;98068.00;;;;8389966;28;20266;-76
2022/01/18 17:38:55;;;;;;;4.37;2.00;;;;;5.80;98069.00;;;;8400166;28;20221;-76
2022/01/18 17:43:01;;;;;;;3.73;2.10;;;;;5.80;98066.00;;;;8393816;28;20231;-75
2022/01/18 17:47:06;;;;;;;5.93;2.40;;;;;5.90;98071.00;;;;8404699;28;20265;-75
2022/01/18 17:51:09;;;;;;;4.67;3.00;;;;;5.90;98067.00;;;;8396319;28;20238;-75
2022/01/18 17:55:12;;;;;;;5.63;3.10;;;;;5.90;98068.00;;;;8400900;28;20261;-75
2022/01/18 17:59:17;;;;;;;5.23;3.20;;;;;5.90;98081.00;;;;8397898;28;20262;-75
2022/01/18 18:03:22;;;;;;;2.13;1.93;;;;;5.80;98074.00;;;;8398292;28;20238;-76
2022/01/18 18:07:25;;;;;;;3.53;1.60;;;;;5.80;98073.00;;;;8397330;28;20302;-75
2022/01/18 18:11:28;;;;;;;10.07;4.73;;;;;5.80;98065.00;;;;8398794;28;20235;-75
2022/01/18 18:15:33;;;;;;;8.33;4.57;;;;;5.80;98073.00;;;;8400522;28;20247;-74
2022/01/18 18:19:37;;;;;;;25.73;10.90;;;;;5.80;98054.00;;;;8402739;28;20231;-74
2022/01/18 18:23:40;;;;;;;7.70;3.83;;;;;5.80;98065.00;;;;8400297;28;20767;-75
2022/01/18 18:27:45;;;;;;;9.43;4.40;;;;;5.80;98064.00;;;;8406911;28;20822;-75
2022/01/18 18:31:49;;;;;;;8.17;3.40;;;;;5.70;98053.00;;;;8403643;28;21195;-73
2022/01/18 18:35:53;;;;;;;4.37;2.83;;;;;5.70;98054.00;;;;8391938;28;20793;-75
2022/01/18 18:40:04;;;;;;;3.00;1.90;;;;;5.60;98062.00;;;;8391128;28;20238;-75
2022/01/18 18:44:11;;;;;;;22.47;10.43;;;;;5.60;98054.00;;;;8399479;28;20258;-74
2022/01/18 18:48:16;;;;;;;51.87;25.20;;;;;5.60;98043.00;;;;8395042;28;20223;-77
2022/01/18 18:52:21;;;;;;;5.70;3.77;;;;;5.60;98032.00;;;;8408814;28;20238;-75
2022/01/18 18:56:24;;;;;;;6.70;3.20;;;;;5.60;98026.00;;;;8393428;28;20696;-78
2022/01/18 19:00:47;;;;;;;5.63;3.57;;;;;5.60;98017.00;;;;8398526;28;20314;-77
2022/01/18 19:05:00;;;;;;;2.40;1.77;;;;;5.50;98011.00;;;;8430566;28;20230;-76
2022/01/18 19:09:37;;;;;;;2.87;2.43;;;;;5.50;98018.00;;;;8427458;28;20672;-79
2022/01/18 19:14:16;;;;;;;7.80;3.70;;;;;5.40;98036.00;;;;8425974;28;20671;-80
2022/01/18 19:18:50;;;;;;;9.67;5.10;;;;;5.40;98046.00;;;;8429292;28;20247;-83
2022/01/18 19:23:29;;;;;;;8.53;4.47;;;;;5.50;98060.00;;;;8429029;28;20227;-78
2022/01/18 19:28:06;;;;;;;5.90;4.07;;;;;5.50;98047.00;;;;8428291;28;20587;-79
2022/01/18 19:32:43;;;;;;;6.30;3.67;;;;;5.50;98052.00;;;;8428827;28;20237;-79
2022/01/18 19:37:20;;;;;;;4.90;3.20;;;;;5.50;98047.00;;;;8428359;28;20227;-78
2022/01/18 19:41:59;;;;;;;10.70;3.80;;;;;5.50;98055.00;;;;8428003;28;20226;-79
2022/01/18 19:46:33;;;;;;;8.20;4.17;;;;;5.50;98047.00;;;;8428549;28;20222;-76
2022/01/18 19:51:10;;;;;;;10.50;5.93;;;;;5.50;98041.00;;;;8427745;28;20243;-77
2022/01/18 19:55:48;;;;;;;10.23;5.67;;;;;5.50;98050.00;;;;8426987;28;20691;-79
2022/01/18 20:00:19;;;;;;;7.63;4.70;;;;;5.30;98038.00;;;;8426719;28;20235;-82
2022/01/18 20:04:22;;;;;;;8.37;4.93;;;;;5.30;98029.00;;;;8408541;28;20252;-81
2022/01/18 20:08:26;;;;;;;5.97;4.10;;;;;5.40;98027.00;;;;8406292;28;20306;-79
2022/01/18 20:12:29;;;;;;;7.77;4.37;;;;;5.40;98026.00;;;;8410609;28;20287;-79
2022/01/18 20:16:34;;;;;;;7.07;4.70;;;;;5.40;98015.00;;;;8413510;28;20339;-83
2022/01/18 20:20:38;;;;;;;6.23;3.67;;;;;5.30;98016.00;;;;8413778;28;20234;-81
2022/01/18 20:24:42;;;;;;;8.30;3.10;;;;;5.20;98013.00;;;;8417251;28;20266;-79
2022/01/18 20:28:45;;;;;;;5.67;3.40;;;;;5.20;98018.00;;;;8392350;28;20588;-81
2022/01/18 20:32:51;;;;;;;7.10;3.63;;;;;5.30;98034.00;;;;8396409;28;21179;-83
2022/01/18 20:36:54;;;;;;;26.47;8.93;;;;;5.30;98034.00;;;;8396292;28;20227;-77
2022/01/18 20:41:00;;;;;;;10.50;4.13;;;;;5.30;98022.00;;;;8393472;28;20228;-79
2022/01/18 20:45:05;;;;;;;12.50;4.83;;;;;5.30;98021.00;;;;8407055;28;20257;-81
2022/01/18 20:49:10;;;;;;;5.03;2.80;;;;;5.30;98010.00;;;;8400327;28;20227;-86
2022/01/18 20:53:16;;;;;;;7.27;3.40;;;;;5.40;97994.00;;;;8400851;28;20322;-85
2022/01/18 20:57:19;;;;;;;4.27;3.20;;;;;5.40;97977.00;;;;8398462;28;20242;-80
2022/01/18 21:01:23;;;;;;;4.00;3.23;;;;;5.30;97968.00;;;;8400069;28;20231;-80
2022/01/18 21:05:28;;;;;;;4.10;2.87;;;;;5.30;97949.00;;;;8395322;28;20341;-82
2022/01/18 21:09:32;;;;;;;4.97;2.90;;;;;5.30;97947.00;;;;8392877;28;20286;-80
2022/01/18 21:13:35;;;;;;;6.73;4.00;;;;;5.30;97953.00;;;;8390060;28;20727;-80
2022/01/18 21:17:38;;;;;;;6.07;3.70;;;;;5.30;97955.00;;;;8393768;28;20236;-77
2022/01/18 21:21:43;;;;;;;5.03;3.63;;;;;5.30;97977.00;;;;8393906;28;20262;-77
2022/01/18 21:25:46;;;;;;;6.43;3.40;;;;;5.30;97974.00;;;;8395284;28;20338;-78
2022/01/18 21:29:50;;;;;;;5.30;3.00;;;;;5.30;97971.00;;;;8397954;28;20220;-79
2022/01/18 21:33:55;;;;;;;6.40;3.70;;;;;5.30;97975.00;;;;8386577;28;20649;-75
2022/01/18 21:38:00;;;;;;;11.00;4.70;;;;;5.30;97968.00;;;;8395582;28;20262;-79
2022/01/18 21:42:04;;;;;;;8.63;3.83;;;;;5.20;97956.00;;;;8398975;28;20230;-79
2022/01/18 21:46:08;;;;;;;6.50;3.57;;;;;5.20;97962.00;;;;8393542;28;20278;-78